Terminal Aerodrome Forecast
Issued by NWS Sterling, VA

Current Version | Previous Version | Graphics & Text | Print | Product List | Glossary On
Versions: 1 2 3 4 5 6 7 8 9 10 11 12 13 14 15 16 17 18 19 20 21 22 23 24 25 26
998
FTUS41 KLWX 270859 AAA
TAFIAD
TAF AMD
KIAD 270859Z 2709/2812 VRB03KT P6SM SCT060 SCT150
     FM271200 VRB03KT P6SM -SHRA BKN050
     FM271800 06005KT P6SM BKN040
     FM280000 03004KT 5SM -SHRA BKN050
     FM280200 02004KT 5SM -SHRA SCT050
     FM280400 VRB03KT P6SM -SHRA SCT030
     FM280600 00000KT P6SM BKN030=

USA.gov is the U.S. government's official web portal to all federal, state and local government web resources and services.